Time;durP1;ratioP1;P1;durP2;ratioP2;P2;SDS_P1;SDS_P2;PMS_P1;PMS_P2;Temp;Humidity;BMP_temperature;BMP_pressure;BME280_temperature;BME280_humidity;BME280_pressure;Samples;Min_cycle;Max_cycle;Signal;HPM_P1;HPM_P2
2022/07/27 00:00:03;;;;;;;1.63;1.00;;;19.10;99.90;;;;;;4975850;28;20176;-75
2022/07/27 00:02:29;;;;;;;0.73;0.73;;;18.90;99.90;;;;;;4960043;28;20215;-75
2022/07/27 00:04:54;;;;;;;0.95;0.80;;;18.80;99.90;;;;;;4975910;28;20619;-75
2022/07/27 00:07:20;;;;;;;0.80;0.80;;;18.90;99.90;;;;;;4959392;28;20271;-75
2022/07/27 00:09:45;;;;;;;1.73;0.80;;;18.90;99.90;;;;;;4959495;28;20176;-75
2022/07/27 00:12:11;;;;;;;0.87;0.87;;;18.80;99.90;;;;;;4959411;28;20222;-75
2022/07/27 00:14:37;;;;;;;1.05;0.95;;;18.70;99.90;;;;;;4959415;28;20180;-75
2022/07/27 00:17:02;;;;;;;0.97;0.93;;;18.70;99.90;;;;;;4959367;28;20180;-75
2022/07/27 00:19:28;;;;;;;0.93;0.90;;;18.60;99.90;;;;;;4975418;28;20212;-76
2022/07/27 00:21:54;;;;;;;1.07;0.90;;;18.70;99.90;;;;;;4975671;28;20206;-75
2022/07/27 00:24:19;;;;;;;0.97;0.80;;;18.60;99.90;;;;;;4975617;28;20179;-75
2022/07/27 00:26:45;;;;;;;1.20;0.87;;;18.70;99.90;;;;;;4959459;28;20184;-75
2022/07/27 00:29:10;;;;;;;1.50;0.90;;;18.70;99.90;;;;;;4975359;28;20234;-75
2022/07/27 00:31:36;;;;;;;0.93;0.90;;;18.70;99.90;;;;;;4959286;28;20208;-75
2022/07/27 00:34:37;;;;;;;1.40;1.00;;;18.70;99.90;;;;;;4962636;28;20188;-75
2022/07/27 00:37:03;;;;;;;0.90;0.90;;;18.60;99.90;;;;;;4978861;28;20168;-75
2022/07/27 00:39:29;;;;;;;1.03;0.90;;;18.60;99.90;;;;;;4963153;28;20183;-75
2022/07/27 00:41:55;;;;;;;0.97;0.87;;;18.60;99.90;;;;;;4995090;28;20206;-76
2022/07/27 00:44:28;;;;;;;0.88;0.88;;;18.60;99.90;;;;;;4962737;28;20184;-75
2022/07/27 00:46:55;;;;;;;1.10;0.90;;;18.50;99.90;;;;;;4978565;28;20176;-75
2022/07/27 00:49:22;;;;;;;1.13;1.00;;;18.60;99.90;;;;;;4978958;28;20187;-75
2022/07/27 00:51:48;;;;;;;1.20;0.93;;;18.60;99.90;;;;;;4962527;28;20310;-75
2022/07/27 00:54:14;;;;;;;1.02;0.90;;;18.50;99.90;;;;;;4978913;28;20184;-75
2022/07/27 00:56:41;;;;;;;1.07;1.00;;;18.50;99.90;;;;;;4978543;28;20530;-75
2022/07/27 00:59:07;;;;;;;1.10;1.00;;;18.50;99.90;;;;;;4978398;28;20172;-75
2022/07/27 01:01:32;;;;;;;0.77;0.77;;;18.40;99.90;;;;;;4978257;28;20190;-75
2022/07/27 01:03:58;;;;;;;1.97;0.97;;;18.40;99.90;;;;;;4962217;28;20201;-75
2022/07/27 01:06:24;;;;;;;1.53;0.80;;;18.30;99.90;;;;;;4962161;28;20194;-76
2022/07/27 01:08:50;;;;;;;1.73;0.87;;;18.30;99.90;;;;;;4978372;28;20186;-75
2022/07/27 01:11:16;;;;;;;1.37;0.80;;;18.20;99.90;;;;;;4978560;28;20211;-75
2022/07/27 01:13:42;;;;;;;0.90;0.90;;;18.20;99.90;;;;;;4962043;28;20231;-76
2022/07/27 01:16:08;;;;;;;1.00;1.00;;;18.30;99.90;;;;;;4978451;28;20187;-76
2022/07/27 01:18:36;;;;;;;2.00;0.90;;;18.30;99.90;;;;;;4962416;28;20180;-75
2022/07/27 01:21:04;;;;;;;0.90;0.90;;;18.30;99.90;;;;;;4978511;28;20207;-75
2022/07/27 01:23:31;;;;;;;1.00;0.90;;;18.30;99.90;;;;;;4995364;28;20198;-76
2022/07/27 01:25:57;;;;;;;1.30;0.98;;;18.30;99.90;;;;;;4978097;28;20718;-76
2022/07/27 01:28:23;;;;;;;2.20;1.00;;;18.30;99.90;;;;;;4995223;28;20207;-75
2022/07/27 01:30:49;;;;;;;1.13;0.90;;;18.20;99.90;;;;;;4977753;28;20246;-76
2022/07/27 01:33:15;;;;;;;1.90;1.00;;;18.10;99.90;;;;;;4994190;28;20199;-75
2022/07/27 01:36:07;;;;;;;1.77;0.90;;;18.10;99.90;;;;;;4994846;28;20172;-75
2022/07/27 01:38:33;;;;;;;0.90;0.90;;;18.20;99.90;;;;;;4994200;28;20170;-75
2022/07/27 01:40:58;;;;;;;1.50;1.10;;;18.20;99.90;;;;;;4977672;28;20247;-76
2022/07/27 01:43:24;;;;;;;1.20;1.10;;;18.30;99.90;;;;;;4961016;28;20199;-75
2022/07/27 01:45:50;;;;;;;1.20;1.00;;;18.30;99.90;;;;;;4977682;28;20223;-75
2022/07/27 01:48:15;;;;;;;1.33;0.93;;;18.20;99.90;;;;;;4977966;28;20179;-75
2022/07/27 01:50:41;;;;;;;1.33;1.00;;;18.10;99.90;;;;;;4961444;28;20211;-75
2022/07/27 01:53:07;;;;;;;1.97;1.00;;;18.20;99.90;;;;;;4961409;28;20283;-75
2022/07/27 01:55:32;;;;;;;1.00;1.00;;;18.20;99.90;;;;;;4995134;28;20211;-76
2022/07/27 01:57:58;;;;;;;1.20;1.10;;;18.10;99.90;;;;;;4961330;28;20186;-75
2022/07/27 02:00:23;;;;;;;1.40;1.10;;;17.90;99.90;;;;;;4977342;28;20200;-75
2022/07/27 02:02:49;;;;;;;1.83;1.00;;;17.80;99.90;;;;;;4977265;28;20226;-75
2022/07/27 02:05:15;;;;;;;1.30;1.20;;;17.80;99.90;;;;;;4961378;28;20188;-75
2022/07/27 02:07:41;;;;;;;1.70;1.10;;;17.90;99.90;;;;;;4961098;28;20206;-75
2022/07/27 02:10:08;;;;;;;1.17;1.00;;;17.90;99.90;;;;;;4993436;28;20176;-75
2022/07/27 02:12:36;;;;;;;1.40;1.10;;;17.90;99.90;;;;;;4993241;28;20202;-75
2022/07/27 02:15:11;;;;;;;3.07;1.17;;;17.90;99.90;;;;;;4961985;28;20183;-75
2022/07/27 02:17:37;;;;;;;1.53;1.30;;;17.90;99.90;;;;;;4960986;28;20179;-75
2022/07/27 02:20:04;;;;;;;1.87;1.00;;;17.90;99.90;;;;;;4994377;28;20681;-75
2022/07/27 02:22:30;;;;;;;1.10;1.00;;;18.00;99.90;;;;;;4977211;28;20248;-75
2022/07/27 02:24:56;;;;;;;1.20;1.10;;;18.00;99.90;;;;;;4960799;28;20203;-75
2022/07/27 02:27:22;;;;;;;4.27;1.13;;;17.90;99.90;;;;;;4976976;28;20241;-75
2022/07/27 02:29:48;;;;;;;1.53;1.30;;;17.90;99.90;;;;;;4994275;28;20179;-75
2022/07/27 02:32:14;;;;;;;1.40;1.00;;;17.90;99.90;;;;;;4976919;28;20439;-75
2022/07/27 02:35:00;;;;;;;2.10;1.30;;;17.70;99.90;;;;;;4960854;28;20218;-75
2022/07/27 02:37:26;;;;;;;1.33;1.00;;;17.70;99.90;;;;;;4976796;28;20199;-75
2022/07/27 02:39:51;;;;;;;1.07;1.00;;;17.80;99.90;;;;;;4976666;28;20258;-75
2022/07/27 02:42:18;;;;;;;1.13;1.03;;;17.90;99.90;;;;;;4976693;28;20191;-75
2022/07/27 02:44:43;;;;;;;1.20;1.10;;;17.90;99.90;;;;;;4992706;28;20176;-75
2022/07/27 02:47:09;;;;;;;1.57;1.17;;;17.90;99.90;;;;;;4960306;28;20536;-75
2022/07/27 02:49:35;;;;;;;1.43;1.03;;;17.90;99.90;;;;;;4976468;28;20191;-75
2022/07/27 02:52:00;;;;;;;2.17;1.03;;;17.80;99.90;;;;;;4976639;28;20305;-76
2022/07/27 02:54:27;;;;;;;1.40;1.27;;;17.90;99.90;;;;;;4976552;28;20176;-75
2022/07/27 02:56:54;;;;;;;1.17;1.07;;;17.90;99.90;;;;;;4992323;28;20668;-75
2022/07/27 02:59:21;;;;;;;1.10;1.00;;;17.90;99.90;;;;;;4960567;28;20279;-75
2022/07/27 03:01:47;;;;;;;1.10;1.00;;;18.00;99.90;;;;;;4976137;28;20627;-75
2022/07/27 03:04:14;;;;;;;1.30;1.00;;;17.90;99.90;;;;;;4992503;28;20180;-75
2022/07/27 03:06:40;;;;;;;1.23;1.03;;;17.90;99.90;;;;;;4992209;28;20184;-75
2022/07/27 03:09:07;;;;;;;1.93;1.20;;;17.80;99.90;;;;;;4992569;28;20215;-75
2022/07/27 03:11:33;;;;;;;1.40;1.10;;;17.70;99.90;;;;;;4992236;28;20203;-75
2022/07/27 03:13:58;;;;;;;1.10;1.00;;;17.60;99.90;;;;;;4960139;28;20171;-75
2022/07/27 03:16:24;;;;;;;1.43;1.30;;;17.60;99.90;;;;;;4960197;28;20179;-75
2022/07/27 03:18:49;;;;;;;1.30;1.20;;;17.50;99.90;;;;;;4976212;28;20202;-75
2022/07/27 03:21:15;;;;;;;1.70;1.30;;;17.60;99.90;;;;;;4959988;28;20187;-75
2022/07/27 03:23:41;;;;;;;2.07;1.20;;;17.60;99.90;;;;;;4976137;28;20196;-75
2022/07/27 03:26:06;;;;;;;1.23;1.13;;;17.60;99.90;;;;;;4992357;28;20184;-76
2022/07/27 03:28:32;;;;;;;1.30;1.20;;;17.60;99.90;;;;;;4975738;28;20665;-75
2022/07/27 03:30:58;;;;;;;1.40;1.20;;;17.60;99.90;;;;;;4975900;28;20214;-75
2022/07/27 03:33:23;;;;;;;2.27;1.30;;;17.60;99.90;;;;;;4975897;28;20192;-75
2022/07/27 03:36:34;;;;;;;2.90;1.30;;;17.60;99.90;;;;;;4993484;28;20175;-75
2022/07/27 03:38:59;;;;;;;2.47;1.27;;;17.60;99.90;;;;;;4992350;28;20199;-75
2022/07/27 03:41:25;;;;;;;1.37;1.27;;;17.60;99.90;;;;;;4959908;28;20179;-75
2022/07/27 03:43:50;;;;;;;1.53;1.23;;;17.60;99.90;;;;;;4975718;28;20240;-76
2022/07/27 03:46:16;;;;;;;1.47;1.20;;;17.60;99.90;;;;;;4960166;28;20187;-75
2022/07/27 03:48:42;;;;;;;3.43;1.30;;;17.50;99.90;;;;;;4959917;28;20184;-75
2022/07/27 03:51:08;;;;;;;2.13;1.30;;;17.30;99.90;;;;;;4959693;28;20234;-75
2022/07/27 03:53:33;;;;;;;3.27;1.53;;;17.30;99.90;;;;;;4959624;28;20662;-75
2022/07/27 03:55:59;;;;;;;1.70;1.30;;;17.10;99.90;;;;;;4959600;28;20211;-75
2022/07/27 03:58:24;;;;;;;2.03;1.23;;;16.90;99.90;;;;;;4959748;28;20183;-75
2022/07/27 04:00:50;;;;;;;1.40;1.30;;;16.70;99.90;;;;;;4959520;28;20180;-75
2022/07/27 04:03:16;;;;;;;3.43;1.40;;;16.50;99.90;;;;;;5027536;23;20701;-75
2022/07/27 04:05:42;;;;;;;1.53;1.27;;;16.40;99.90;;;;;;4998600;28;20707;-75
2022/07/27 04:08:08;;;;;;;2.77;1.23;;;16.50;99.90;;;;;;5034604;28;20171;-75
2022/07/27 04:10:34;;;;;;;1.87;1.30;;;16.70;99.90;;;;;;5018572;28;20284;-76
2022/07/27 04:12:59;;;;;;;2.20;1.27;;;16.80;99.90;;;;;;5009061;28;20564;-76
2022/07/27 04:15:25;;;;;;;2.67;1.30;;;16.80;99.90;;;;;;5016635;28;20172;-76
2022/07/27 04:17:54;;;;;;;3.30;1.40;;;16.90;99.90;;;;;;5016433;28;20633;-77
2022/07/27 04:20:20;;;;;;;3.47;1.43;;;16.90;99.90;;;;;;4983446;28;20164;-76
2022/07/27 04:22:45;;;;;;;3.07;1.50;;;16.90;99.90;;;;;;4998994;28;20206;-77
2022/07/27 04:25:11;;;;;;;3.53;1.53;;;16.90;99.90;;;;;;4983635;28;20183;-78
2022/07/27 04:28:20;;;;;;;2.17;1.50;;;17.00;99.90;;;;;;4998930;28;20602;-77
2022/07/27 04:30:46;;;;;;;2.97;1.50;;;17.10;99.90;;;;;;4998633;28;20572;-76
2022/07/27 04:33:11;;;;;;;3.57;1.40;;;17.10;99.90;;;;;;4966300;28;20199;-76
2022/07/27 04:35:37;;;;;;;3.20;1.30;;;17.10;99.90;;;;;;4982759;28;20233;-79
2022/07/27 04:38:03;;;;;;;4.03;1.50;;;17.10;99.90;;;;;;4967583;28;20526;-77
2022/07/27 04:40:31;;;;;;;3.73;1.27;;;17.10;99.90;;;;;;4982739;28;20209;-76
2022/07/27 04:42:56;;;;;;;2.53;1.30;;;17.10;99.90;;;;;;4998887;28;20231;-76
2022/07/27 04:45:22;;;;;;;4.20;1.20;;;17.10;99.90;;;;;;4966102;28;20622;-75
2022/07/27 04:47:47;;;;;;;2.03;1.20;;;17.10;99.90;;;;;;4965797;28;20179;-76
2022/07/27 04:50:13;;;;;;;2.07;1.47;;;17.10;99.90;;;;;;4965883;28;20183;-75
2022/07/27 04:52:39;;;;;;;2.13;1.40;;;17.10;99.90;;;;;;4965771;28;20233;-77
2022/07/27 04:55:05;;;;;;;4.47;1.60;;;17.10;99.90;;;;;;5015549;28;20175;-77
2022/07/27 04:57:30;;;;;;;3.63;1.40;;;17.10;99.90;;;;;;4965676;28;20183;-76
2022/07/27 04:59:56;;;;;;;5.90;1.70;;;17.00;99.90;;;;;;4965818;28;20179;-77
2022/07/27 05:02:21;;;;;;;3.40;1.40;;;16.90;99.90;;;;;;4965787;28;20253;-76
2022/07/27 05:04:47;;;;;;;4.10;1.63;;;16.90;99.90;;;;;;4998880;28;20175;-76
2022/07/27 05:07:12;;;;;;;7.27;1.53;;;17.00;99.90;;;;;;4982437;28;20224;-76
2022/07/27 05:09:38;;;;;;;2.83;1.37;;;17.20;99.90;;;;;;4998606;28;20195;-76
2022/07/27 05:12:04;;;;;;;2.33;1.40;;;17.50;99.90;;;;;;4981888;28;20696;-77
2022/07/27 05:14:29;;;;;;;5.73;1.50;;;17.80;99.90;;;;;;4965795;28;20176;-76
2022/07/27 05:16:55;;;;;;;2.27;1.30;;;18.10;99.90;;;;;;4965810;28;20213;-76
2022/07/27 05:19:24;;;;;;;2.30;1.40;;;18.20;99.90;;;;;;4998275;28;20176;-76
2022/07/27 05:21:49;;;;;;;3.37;1.50;;;18.30;99.90;;;;;;4982753;28;20179;-76
2022/07/27 05:24:15;;;;;;;3.13;1.40;;;18.30;99.90;;;;;;4982165;28;20678;-76
2022/07/27 05:26:40;;;;;;;5.67;1.70;;;18.50;99.90;;;;;;4965881;28;20190;-76
2022/07/27 05:29:06;;;;;;;3.23;1.50;;;18.50;99.90;;;;;;4965260;28;20241;-76
2022/07/27 05:31:32;;;;;;;3.67;1.27;;;18.60;99.90;;;;;;4981867;28;20790;-77
2022/07/27 05:33:57;;;;;;;4.57;1.30;;;18.60;99.90;;;;;;4966181;28;20210;-77
2022/07/27 05:36:23;;;;;;;3.27;1.33;;;18.70;99.90;;;;;;4981355;28;20181;-76
2022/07/27 05:38:48;;;;;;;2.90;1.30;;;18.70;99.90;;;;;;4965559;28;20245;-78
2022/07/27 05:41:14;;;;;;;4.80;1.47;;;18.60;99.90;;;;;;4981614;28;20657;-77
2022/07/27 05:43:40;;;;;;;2.53;1.30;;;18.80;99.90;;;;;;4964978;28;20202;-77
2022/07/27 05:46:05;;;;;;;4.30;1.50;;;18.80;99.90;;;;;;4964386;28;20179;-77
2022/07/27 05:48:31;;;;;;;3.40;1.50;;;18.60;99.90;;;;;;4964105;28;20201;-77
2022/07/27 05:50:57;;;;;;;2.67;1.70;;;18.50;99.90;;;;;;4980872;28;20214;-77
2022/07/27 05:53:24;;;;;;;1.67;1.30;;;18.40;99.90;;;;;;4980582;28;20231;-77
2022/07/27 05:55:51;;;;;;;2.50;1.30;;;18.40;99.90;;;;;;4997170;28;20278;-77
2022/07/27 05:58:16;;;;;;;3.83;1.60;;;18.00;99.90;;;;;;4965031;28;20665;-77
2022/07/27 06:00:42;;;;;;;3.47;1.27;;;17.80;99.90;;;;;;4964445;28;20286;-77
2022/07/27 06:03:07;;;;;;;3.37;1.60;;;17.90;99.90;;;;;;4964357;28;20214;-77
2022/07/27 06:05:33;;;;;;;3.27;1.63;;;17.90;99.90;;;;;;4964848;28;20227;-77
2022/07/27 06:07:58;;;;;;;4.77;1.70;;;18.20;99.90;;;;;;4980330;28;20186;-77
2022/07/27 06:10:31;;;;;;;3.43;1.47;;;17.90;99.90;;;;;;4980404;28;20175;-77
2022/07/27 06:12:57;;;;;;;3.37;2.13;;;18.00;99.90;;;;;;4980505;28;20202;-77
2022/07/27 06:15:23;;;;;;;2.83;1.50;;;17.90;99.90;;;;;;4980189;28;20527;-77
2022/07/27 06:17:51;;;;;;;3.10;1.40;;;18.20;99.90;;;;;;4964276;28;20585;-77
2022/07/27 06:20:17;;;;;;;4.77;1.60;;;18.50;99.90;;;;;;4996474;28;20175;-77
2022/07/27 06:22:48;;;;;;;3.73;1.50;;;18.60;99.90;;;;;;4996238;28;20241;-77
2022/07/27 06:25:15;;;;;;;2.67;1.50;;;18.40;99.90;;;;;;4964288;28;20623;-77
2022/07/27 06:27:40;;;;;;;3.53;1.40;;;18.30;99.90;;;;;;4980100;28;20179;-77
2022/07/27 06:30:07;;;;;;;5.67;1.50;;;18.40;99.90;;;;;;4995659;28;20194;-77
2022/07/27 06:32:33;;;;;;;3.53;1.57;;;18.30;99.90;;;;;;4995739;28;20268;-77
2022/07/27 06:35:00;;;;;;;2.47;1.27;;;18.20;99.90;;;;;;4963692;28;20655;-77
2022/07/27 06:37:28;;;;;;;3.13;1.40;;;18.50;99.90;;;;;;4996107;28;20625;-77
2022/07/27 06:39:54;;;;;;;2.03;1.30;;;18.50;99.90;;;;;;4980208;28;20182;-77
2022/07/27 06:42:19;;;;;;;5.80;1.83;;;18.10;99.90;;;;;;4996210;28;20195;-77
2022/07/27 06:44:45;;;;;;;4.87;1.60;;;17.90;99.90;;;;;;4979453;28;20186;-77
2022/07/27 06:47:10;;;;;;;5.17;1.57;;;18.10;99.90;;;;;;4979542;28;20274;-77
2022/07/27 06:49:36;;;;;;;3.13;1.60;;;18.00;99.90;;;;;;4979720;28;20246;-77
2022/07/27 06:52:02;;;;;;;3.57;1.40;;;18.20;99.90;;;;;;4963212;28;20203;-77
2022/07/27 06:54:28;;;;;;;4.13;1.80;;;18.10;99.90;;;;;;4979560;28;20179;-77
2022/07/27 06:56:53;;;;;;;5.57;1.43;;;18.20;99.90;;;;;;4963282;28;20529;-77
2022/07/27 06:59:19;;;;;;;3.97;1.60;;;18.20;99.90;;;;;;4995681;28;20190;-77
2022/07/27 07:01:44;;;;;;;6.10;1.63;;;18.40;99.90;;;;;;4963475;28;20233;-77
2022/07/27 07:04:10;;;;;;;3.97;1.50;;;18.70;99.90;;;;;;4979383;28;20215;-77
2022/07/27 07:06:36;;;;;;;4.07;1.77;;;18.60;99.90;;;;;;4995354;28;20256;-77
2022/07/27 07:09:01;;;;;;;3.77;1.50;;;18.50;99.90;;;;;;4979462;28;20534;-77
2022/07/27 07:11:27;;;;;;;3.27;1.57;;;18.50;99.90;;;;;;4979204;28;20261;-77
2022/07/27 07:13:52;;;;;;;5.03;1.63;;;18.50;99.90;;;;;;4978941;28;20199;-77
2022/07/27 07:16:18;;;;;;;4.00;1.57;;;18.50;99.90;;;;;;4962768;28;20178;-77
2022/07/27 07:18:44;;;;;;;4.00;1.80;;;18.50;99.90;;;;;;4979328;28;20175;-77
2022/07/27 07:21:09;;;;;;;3.37;1.40;;;18.60;99.90;;;;;;4963198;28;20187;-77
2022/07/27 07:23:35;;;;;;;4.50;1.77;;;18.40;99.90;;;;;;4962848;28;20285;-77
2022/07/27 07:26:00;;;;;;;2.90;1.20;;;18.50;99.90;;;;;;4962870;28;20187;-77
2022/07/27 07:28:26;;;;;;;4.10;1.50;;;18.50;99.90;;;;;;4978743;28;20187;-77
2022/07/27 07:30:52;;;;;;;4.70;1.90;;;18.60;99.90;;;;;;4979012;28;20577;-77
2022/07/27 07:33:18;;;;;;;3.73;1.50;;;18.50;99.90;;;;;;4978930;28;20199;-77
2022/07/27 07:35:43;;;;;;;4.00;1.60;;;18.60;99.90;;;;;;4978902;28;20179;-77
2022/07/27 07:38:09;;;;;;;3.83;1.60;;;18.70;99.90;;;;;;4978798;28;20271;-77
2022/07/27 07:40:35;;;;;;;4.23;1.60;;;19.00;99.90;;;;;;4979086;28;20233;-77
2022/07/27 07:43:02;;;;;;;4.63;1.50;;;19.20;99.90;;;;;;4981090;28;20218;-77
2022/07/27 07:45:30;;;;;;;5.13;1.60;;;19.40;99.90;;;;;;4982991;28;20187;-77
2022/07/27 07:47:56;;;;;;;3.03;1.50;;;19.60;99.90;;;;;;4999033;28;20232;-77
2022/07/27 07:50:23;;;;;;;4.43;1.40;;;19.60;99.90;;;;;;4982739;28;20637;-77
2022/07/27 07:52:50;;;;;;;3.67;1.50;;;19.60;99.90;;;;;;4982740;28;20201;-77
2022/07/27 07:55:22;;;;;;;3.23;1.63;;;19.40;99.90;;;;;;5016762;28;20513;-77
2022/07/27 07:57:48;;;;;;;4.27;1.60;;;19.50;99.90;;;;;;5016831;28;20178;-77
2022/07/27 08:00:15;;;;;;;3.07;1.30;;;19.60;99.90;;;;;;4999130;28;20319;-77
2022/07/27 08:02:43;;;;;;;4.87;1.40;;;19.80;99.90;;;;;;4998976;28;20211;-77
2022/07/27 08:05:10;;;;;;;2.33;1.30;;;19.70;99.90;;;;;;4998966;28;20178;-77
2022/07/27 08:07:35;;;;;;;3.70;1.43;;;19.80;99.90;;;;;;4982496;28;20237;-77
2022/07/27 08:10:01;;;;;;;6.03;1.43;;;19.90;99.90;;;;;;4982642;28;20175;-77
2022/07/27 08:12:26;;;;;;;4.37;1.43;;;19.90;99.90;;;;;;4965985;28;20767;-77
2022/07/27 08:14:52;;;;;;;4.33;1.60;;;19.90;99.90;;;;;;4966452;28;20591;-77
2022/07/27 08:17:18;;;;;;;4.00;1.60;;;20.00;99.90;;;;;;4966146;28;20642;-77
2022/07/27 08:19:43;;;;;;;3.30;1.50;;;20.10;99.90;;;;;;4966355;28;20204;-77
2022/07/27 08:22:09;;;;;;;4.03;1.30;;;20.30;99.90;;;;;;4966001;28;20186;-77
2022/07/27 08:24:34;;;;;;;4.20;1.53;;;20.10;99.90;;;;;;4982106;28;20187;-77
2022/07/27 08:27:00;;;;;;;4.03;1.30;;;20.20;99.90;;;;;;4998090;28;20218;-77
2022/07/27 08:29:26;;;;;;;2.77;1.70;;;19.90;99.90;;;;;;4982137;28;20218;-77
2022/07/27 08:31:51;;;;;;;3.00;1.50;;;19.70;99.90;;;;;;4966103;28;20252;-77
2022/07/27 08:34:17;;;;;;;5.00;1.50;;;19.80;99.90;;;;;;4998231;28;20217;-77
2022/07/27 08:36:42;;;;;;;3.20;1.30;;;20.10;99.90;;;;;;4981575;28;20565;-77
2022/07/27 08:39:08;;;;;;;5.37;1.57;;;20.10;99.90;;;;;;4981896;28;20550;-77
2022/07/27 08:41:38;;;;;;;3.67;1.63;;;20.30;99.90;;;;;;4981628;28;20187;-77
2022/07/27 08:44:05;;;;;;;5.70;1.57;;;20.30;99.90;;;;;;4997720;28;20199;-77
2022/07/27 08:46:31;;;;;;;3.47;1.50;;;20.50;99.90;;;;;;5015586;28;20201;-77
2022/07/27 08:49:01;;;;;;;4.32;1.50;;;20.80;99.90;;;;;;4997703;28;20213;-77
2022/07/27 08:51:27;;;;;;;2.25;1.38;;;21.10;99.90;;;;;;4997805;28;20228;-77
2022/07/27 08:53:54;;;;;;;4.05;1.60;;;21.20;99.90;;;;;;4981147;28;20195;-77
2022/07/27 08:56:20;;;;;;;4.13;1.60;;;21.00;99.90;;;;;;4981345;28;20182;-77
2022/07/27 08:58:46;;;;;;;5.38;1.67;;;20.80;99.90;;;;;;4997838;28;20175;-77
2022/07/27 09:01:12;;;;;;;4.15;1.70;;;20.80;99.90;;;;;;4965584;28;20270;-77
2022/07/27 09:03:37;;;;;;;3.58;1.33;;;20.70;99.90;;;;;;4981328;28;20609;-77
2022/07/27 09:06:03;;;;;;;4.03;1.60;;;20.50;99.90;;;;;;4965407;28;20179;-77
2022/07/27 09:08:30;;;;;;;4.75;1.98;;;20.40;99.90;;;;;;4965419;28;20182;-77
2022/07/27 09:10:58;;;;;;;4.20;1.20;;;20.20;99.90;;;;;;4965504;28;20199;-77
2022/07/27 09:13:25;;;;;;;3.63;1.30;;;20.20;99.90;;;;;;4981276;28;20195;-77
2022/07/27 09:15:57;;;;;;;2.87;1.47;;;20.20;99.90;;;;;;4997583;28;20194;-77
2022/07/27 09:18:25;;;;;;;3.17;1.45;;;20.30;99.90;;;;;;4981155;28;20183;-77
2022/07/27 09:21:10;;;;;;;2.90;1.40;;;20.40;99.90;;;;;;4965308;28;20184;-77
2022/07/27 09:23:38;;;;;;;2.95;1.40;;;20.50;99.90;;;;;;4997454;28;20195;-77
2022/07/27 09:26:12;;;;;;;4.60;1.55;;;20.70;99.90;;;;;;4981446;28;20183;-77
2022/07/27 09:28:38;;;;;;;5.55;1.45;;;20.80;99.90;;;;;;4981130;28;20186;-77
2022/07/27 09:31:07;;;;;;;4.20;1.38;;;20.90;99.90;;;;;;5014948;28;20282;-77
2022/07/27 09:33:44;;;;;;;4.13;1.63;;;21.30;99.90;;;;;;4965278;28;20202;-77
2022/07/27 09:36:10;;;;;;;3.78;1.50;;;21.90;99.90;;;;;;4997343;28;20171;-77
2022/07/27 09:38:35;;;;;;;2.33;1.38;;;22.30;99.90;;;;;;4997313;28;20213;-77
2022/07/27 09:41:05;;;;;;;3.28;1.42;;;22.50;99.90;;;;;;4980982;28;20228;-77
2022/07/27 09:43:43;;;;;;;4.18;1.50;;;22.40;99.90;;;;;;4981327;28;20229;-77
2022/07/27 09:46:09;;;;;;;4.20;1.50;;;22.30;99.90;;;;;;4999858;28;20183;-77
2022/07/27 09:48:35;;;;;;;2.47;1.33;;;22.10;99.90;;;;;;4982053;28;20190;-77
2022/07/27 09:51:03;;;;;;;1.98;1.30;;;22.00;99.90;;;;;;4964437;28;20619;-77
2022/07/27 09:53:34;;;;;;;3.20;1.50;;;21.80;99.90;;;;;;4996459;28;20194;-77
2022/07/27 09:56:12;;;;;;;3.15;1.70;;;21.50;99.90;;;;;;4981153;28;20179;-77
2022/07/27 09:58:52;;;;;;;3.05;1.33;;;21.50;99.90;;;;;;4981313;28;20175;-77
2022/07/27 10:01:20;;;;;;;3.53;1.48;;;21.60;99.90;;;;;;4998264;28;20183;-77
2022/07/27 10:03:48;;;;;;;3.83;1.73;;;21.70;99.90;;;;;;5030674;23;20222;-76
2022/07/27 10:06:14;;;;;;;4.55;1.67;;;21.70;99.90;;;;;;5015612;28;20189;-76
2022/07/27 10:08:44;;;;;;;5.22;1.42;;;21.60;99.90;;;;;;5015988;28;20201;-76
2022/07/27 10:11:11;;;;;;;3.80;1.60;;;21.60;99.90;;;;;;5015910;28;20256;-76
2022/07/27 10:13:38;;;;;;;3.42;1.52;;;21.70;99.90;;;;;;4999756;28;20282;-76
2022/07/27 10:16:05;;;;;;;3.42;1.67;;;22.00;99.90;;;;;;5015845;28;20174;-76
2022/07/27 10:18:55;;;;;;;3.90;1.50;;;22.20;99.90;;;;;;5015861;28;20204;-76
2022/07/27 10:21:22;;;;;;;3.53;1.40;;;21.80;99.90;;;;;;5015618;28;20540;-76
2022/07/27 10:23:57;;;;;;;4.25;1.40;;;21.50;99.90;;;;;;4999456;28;20198;-77
2022/07/27 10:26:23;;;;;;;3.15;1.52;;;21.50;99.90;;;;;;5015362;28;20702;-76
2022/07/27 10:28:58;;;;;;;3.42;1.33;;;21.50;99.90;;;;;;5015549;28;20219;-76
2022/07/27 10:31:30;;;;;;;3.47;1.35;;;21.80;99.90;;;;;;5015500;28;20190;-76
2022/07/27 10:34:01;;;;;;;2.60;1.10;;;22.00;99.90;;;;;;5015276;28;20190;-76
2022/07/27 10:36:29;;;;;;;3.28;1.30;;;22.20;99.90;;;;;;4999378;28;20236;-76
2022/07/27 10:38:57;;;;;;;3.42;1.45;;;22.10;99.90;;;;;;5015429;28;20171;-76
2022/07/27 10:41:26;;;;;;;3.20;1.33;;;22.10;99.90;;;;;;5015278;28;20178;-76
2022/07/27 10:44:10;;;;;;;3.05;1.27;;;22.00;99.90;;;;;;4999017;28;20221;-76
2022/07/27 10:47:01;;;;;;;2.63;1.30;;;21.70;99.90;;;;;;5015175;28;20158;-77
2022/07/27 10:49:33;;;;;;;3.42;1.27;;;21.70;99.90;;;;;;5032924;28;20170;-76
2022/07/27 10:52:00;;;;;;;1.83;1.45;;;21.70;99.90;;;;;;4998897;28;20264;-76
2022/07/27 10:54:33;;;;;;;3.88;1.30;;;21.80;99.90;;;;;;5015455;28;20225;-77
2022/07/27 10:57:01;;;;;;;1.85;1.20;;;22.40;99.90;;;;;;5032571;28;20653;-77
2022/07/27 10:59:39;;;;;;;2.92;1.42;;;22.90;99.90;;;;;;4998868;28;20313;-76
2022/07/27 11:02:13;;;;;;;2.72;1.20;;;23.50;97.30;;;;;;5015258;28;20190;-77
2022/07/27 11:04:50;;;;;;;3.08;1.20;;;23.50;96.10;;;;;;5025330;28;20206;-78
2022/07/27 11:07:21;;;;;;;3.13;1.50;;;23.70;96.30;;;;;;5027227;28;20656;-76
2022/07/27 11:09:49;;;;;;;3.92;1.33;;;24.10;95.60;;;;;;5015740;28;20163;-77
2022/07/27 11:12:17;;;;;;;5.25;1.20;;;24.60;92.80;;;;;;4998459;28;20241;-77
2022/07/27 11:14:54;;;;;;;3.72;1.25;;;25.10;92.30;;;;;;5014740;28;20209;-77
2022/07/27 11:17:23;;;;;;;2.70;1.48;;;25.40;83.50;;;;;;4999081;28;20162;-77
2022/07/27 11:19:55;;;;;;;2.40;1.20;;;25.20;83.40;;;;;;4998581;28;20177;-77
2022/07/27 11:22:32;;;;;;;3.75;1.30;;;25.20;84.70;;;;;;4998971;28;20186;-76
2022/07/27 11:25:00;;;;;;;1.90;1.23;;;24.60;80.70;;;;;;4999810;28;20292;-76
2022/07/27 11:27:26;;;;;;;3.25;1.35;;;24.00;85.80;;;;;;5014916;28;20186;-77
2022/07/27 11:29:52;;;;;;;3.58;1.35;;;23.40;89.90;;;;;;5014706;28;20661;-76
2022/07/27 11:32:19;;;;;;;3.65;1.52;;;23.40;90.50;;;;;;4998290;28;20297;-76
2022/07/27 11:34:45;;;;;;;2.50;1.00;;;23.90;90.80;;;;;;4998504;28;20265;-76
2022/07/27 11:37:22;;;;;;;1.83;1.00;;;24.40;90.10;;;;;;5014569;28;20178;-76
2022/07/27 11:39:57;;;;;;;2.38;1.15;;;24.70;87.50;;;;;;5032682;28;20219;-76
2022/07/27 11:42:35;;;;;;;3.63;1.50;;;24.50;88.40;;;;;;4998047;28;20178;-77
2022/07/27 11:45:00;;;;;;;2.50;1.20;;;24.90;85.00;;;;;;5000073;28;20170;-76
2022/07/27 11:47:28;;;;;;;4.60;1.60;;;25.50;84.30;;;;;;5014540;28;20668;-76
2022/07/27 11:50:06;;;;;;;2.58;1.00;;;25.20;79.90;;;;;;4982837;28;20182;-77
2022/07/27 11:52:32;;;;;;;1.90;1.00;;;25.50;76.80;;;;;;4997868;28;20202;-76
2022/07/27 11:54:58;;;;;;;1.45;1.10;;;25.60;78.40;;;;;;4998145;28;20185;-76
2022/07/27 11:57:31;;;;;;;1.63;0.90;;;26.00;75.20;;;;;;5014165;28;20226;-76
2022/07/27 11:59:56;;;;;;;2.33;1.10;;;26.30;71.30;;;;;;4998356;28;20269;-76
2022/07/27 12:02:24;;;;;;;1.40;1.02;;;26.20;71.40;;;;;;5014241;28;20265;-76
2022/07/27 12:04:51;;;;;;;1.10;1.00;;;26.20;70.40;;;;;;5014481;28;20561;-76
2022/07/27 12:07:26;;;;;;;2.20;1.00;;;26.30;69.80;;;;;;4997996;28;20186;-76
2022/07/27 12:09:57;;;;;;;2.15;0.98;;;26.40;70.00;;;;;;5014247;28;20174;-76
2022/07/27 12:12:24;;;;;;;1.90;1.10;;;26.20;69.30;;;;;;4998358;28;20206;-76
2022/07/27 12:14:53;;;;;;;2.88;1.20;;;25.40;70.30;;;;;;4998237;28;20186;-76
2022/07/27 12:17:38;;;;;;;2.58;1.15;;;24.70;73.60;;;;;;5014007;28;20170;-77
2022/07/27 12:20:11;;;;;;;2.50;0.93;;;24.40;76.70;;;;;;5014096;28;20534;-77
2022/07/27 12:22:38;;;;;;;2.22;1.10;;;24.10;75.90;;;;;;4998178;28;20673;-77
2022/07/27 12:25:10;;;;;;;4.15;1.10;;;23.90;78.90;;;;;;5031698;28;20517;-77
2022/07/27 12:27:36;;;;;;;2.90;1.10;;;24.20;78.30;;;;;;5031489;28;20181;-76
2022/07/27 12:30:11;;;;;;;1.80;1.08;;;24.60;74.10;;;;;;5017863;28;20182;-77
2022/07/27 12:32:43;;;;;;;2.70;0.98;;;24.70;71.90;;;;;;5017627;28;20244;-76
2022/07/27 12:35:23;;;;;;;1.52;1.00;;;25.10;68.10;;;;;;5017722;28;20147;-77
2022/07/27 12:37:58;;;;;;;2.53;1.00;;;24.90;67.90;;;;;;5017510;28;20607;-77
2022/07/27 12:40:24;;;;;;;6.10;1.20;;;25.40;65.70;;;;;;5035241;28;20173;-77
2022/07/27 12:42:59;;;;;;;1.55;0.95;;;25.50;68.20;;;;;;5001196;28;20199;-77
2022/07/27 12:45:30;;;;;;;2.63;1.10;;;26.10;68.50;;;;;;5000494;28;20284;-77
2022/07/27 12:48:05;;;;;;;1.48;0.93;;;25.90;65.00;;;;;;5000920;28;20297;-77
2022/07/27 12:50:30;;;;;;;2.08;0.90;;;25.80;65.90;;;;;;5017539;28;20174;-77